Time;durP1;ratioP1;P1;durP2;ratioP2;P2;SDS_P1;SDS_P2;PMS_P1;PMS_P2;Temp;Humidity;BMP_temperature;BMP_pressure;BME280_temperature;BME280_humidity;BME280_pressure;Samples;Min_cycle;Max_cycle;Signal;HPM_P1;HPM_P2
2021/12/24 00:01:56;;;;;;;25.82;11.78;;;;;;;-7.42;59.50;99271.98;1796852;79;21926;-37
2021/12/24 00:04:23;;;;;;;25.85;12.07;;;;;;;-7.39;59.59;99266.22;1796936;79;21057;-37
2021/12/24 00:06:51;;;;;;;19.80;11.35;;;;;;;-7.34;59.54;99257.06;1796609;79;20993;-37
2021/12/24 00:09:26;;;;;;;23.62;11.30;;;;;;;-7.34;59.54;99257.06;1796698;79;20914;-36
2021/12/24 00:11:57;;;;;;;19.65;10.78;;;;;;;-7.32;59.44;99260.78;1796888;79;21026;-37
2021/12/24 00:14:23;;;;;;;;;;;;;;;-7.27;59.28;99248.99;1799155;79;21037;-37
2021/12/24 00:16:56;;;;;;;18.30;11.00;;;;;;;-7.28;59.21;99255.30;1796853;79;21170;-37
2021/12/24 00:19:25;;;;;;;18.92;11.73;;;;;;;-7.37;59.48;99251.50;1795606;79;21010;-37
2021/12/24 00:35:32;;;;;;;23.95;10.90;;;;;;;-7.38;59.75;99220.42;1796816;79;21594;-37
2021/12/24 00:38:01;;;;;;;18.25;11.00;;;;;;;-7.43;60.07;99205.88;1796577;79;21600;-37
2021/12/24 00:40:25;;;;;;;23.65;11.48;;;;;;;-7.43;60.07;99205.88;1796186;79;21006;-37
2021/12/24 00:42:54;;;;;;;24.23;11.40;;;;;;;-7.44;60.01;99201.66;1801902;79;21755;-37
2021/12/24 00:45:25;;;;;;;19.57;11.40;;;;;;;-7.37;59.95;99194.89;1813187;79;21005;-37
2021/12/24 00:47:52;;;;;;;19.48;11.45;;;;;;;-7.35;59.85;99192.27;1813429;79;21067;-37
2021/12/24 00:50:23;;;;;;;21.17;11.75;;;;;;;-7.37;60.10;99179.89;1813084;79;20918;-37
2021/12/24 00:52:58;;;;;;;18.48;10.43;;;;;;;-7.30;59.76;99181.00;1813548;79;21040;-37
2021/12/24 00:55:22;;;;;;;20.65;12.03;;;;;;;-7.29;59.72;99177.33;1811131;79;21881;-37
2021/12/24 00:57:52;;;;;;;18.27;10.98;;;;;;;-7.29;59.66;99156.26;1813068;79;20968;-37
2021/12/24 01:00:24;;;;;;;21.42;11.22;;;;;;;-7.29;59.66;99156.26;1813392;78;21040;-37
2021/12/24 01:02:52;;;;;;;23.32;11.93;;;;;;;-7.35;59.74;99146.70;1813144;78;21001;-37
2021/12/24 01:05:20;;;;;;;24.57;11.83;;;;;;;-7.35;59.74;99146.70;1813197;79;21077;-37
2021/12/24 01:07:49;;;;;;;21.85;12.00;;;;;;;-7.38;59.73;99146.70;1813069;79;21776;-37
2021/12/24 01:10:20;;;;;;;20.40;11.15;;;;;;;-7.37;59.77;99136.45;1813093;79;21562;-37
2021/12/24 01:12:47;;;;;;;23.55;10.68;;;;;;;-7.34;59.69;99132.50;1813163;78;20921;-37
2021/12/24 01:15:14;;;;;;;19.85;11.53;;;;;;;-7.35;59.62;99120.38;1813134;79;20921;-37
2021/12/24 01:18:14;;;;;;;20.48;11.25;;;;;;;-7.33;59.62;99115.16;1813303;79;21012;-37
2021/12/24 01:20:25;;;;;;;20.60;10.65;;;;;;;-7.31;59.62;99105.14;1797592;79;21880;-37
2021/12/24 01:25:26;;;;;;;15.18;9.23;;;;;;;-7.20;59.31;99098.94;1813175;79;20945;-37
2021/12/24 01:28:04;;;;;;;16.43;10.17;;;;;;;-7.19;59.33;99089.20;1810400;79;20862;-37
2021/12/24 01:38:52;;;;;;;23.95;10.95;;;;;;;-7.17;59.04;99076.59;1747439;81;21004;-37
2021/12/24 01:41:08;;;;;;;17.98;10.78;;;;;;;-7.25;59.20;99062.02;1812601;79;21609;-36
2021/12/24 01:43:34;;;;;;;;;;;;;;;-7.28;59.34;99053.83;1811705;79;21583;-37
2021/12/24 01:46:01;;;;;;;21.60;11.97;;;;;;;-7.34;59.53;99038.51;1804320;79;21835;-37
2021/12/24 01:48:29;;;;;;;19.23;11.12;;;;;;;-7.34;59.53;99038.51;1803988;79;20901;-37
2021/12/24 01:50:56;;;;;;;23.27;11.45;;;;;;;-7.35;59.65;99034.80;1804076;79;21005;-36
2021/12/24 01:53:25;;;;;;;20.52;11.75;;;;;;;-7.38;59.73;99028.73;1803448;79;21001;-36
2021/12/24 01:55:55;;;;;;;14.68;8.65;;;;;;;-7.35;59.84;99011.10;1804226;79;21036;-37
2021/12/24 01:58:25;;;;;;;14.68;8.25;;;;;;;-7.24;59.68;99014.09;1804222;79;21141;-37
2021/12/24 02:00:54;;;;;;;20.05;11.28;;;;;;;-7.14;59.54;99011.53;1804017;79;21000;-37
2021/12/24 02:03:21;;;;;;;20.00;11.73;;;;;;;-7.10;59.42;99002.87;1804100;79;21633;-36
2021/12/24 02:05:47;;;;;;;25.32;10.50;;;;;;;-7.07;59.22;98991.82;1803920;79;20988;-37
2021/12/24 02:08:15;;;;;;;21.27;11.50;;;;;;;-7.04;59.12;98984.75;1804026;79;20973;-37
2021/12/24 02:10:43;;;;;;;22.27;11.90;;;;;;;-7.09;59.19;98989.19;1804290;79;21915;-37
2021/12/24 02:13:10;;;;;;;17.60;11.40;;;;;;;-7.12;59.29;98988.38;1803852;79;20992;-37
2021/12/24 02:16:05;;;;;;;19.85;11.80;;;;;;;-7.14;59.32;98978.09;1804507;78;21496;-37
2021/12/24 02:18:46;;;;;;;18.07;11.05;;;;;;;-7.12;59.21;98976.53;1800956;79;20957;-37
2021/12/24 02:29:08;;;;;;;18.55;11.43;;;;;;;-7.35;59.66;98944.75;1804291;79;21830;-37
2021/12/24 02:31:35;;;;;;;19.07;12.15;;;;;;;-7.37;59.74;98946.06;1779739;79;20929;-37
2021/12/24 02:34:01;;;;;;;18.23;11.48;;;;;;;-7.39;59.74;98937.62;1804076;79;21574;-37
2021/12/24 02:36:28;;;;;;;23.75;11.93;;;;;;;-7.40;59.77;98943.92;1804299;79;21080;-36
2021/12/24 02:38:55;;;;;;;18.67;11.45;;;;;;;-7.39;59.66;98934.98;1803987;79;21016;-37
2021/12/24 02:41:22;;;;;;;24.07;12.00;;;;;;;-7.39;59.68;98933.66;1803780;79;21060;-37
2021/12/24 02:43:50;;;;;;;18.85;11.18;;;;;;;-7.40;59.69;98942.60;1803968;79;21017;-37
2021/12/24 02:46:52;;;;;;;21.05;11.83;;;;;;;-7.47;59.72;98943.64;1779443;79;21024;-37
2021/12/24 02:54:08;;;;;;;22.58;12.30;;;;;;;-7.55;59.88;98908.55;1804106;79;20979;-37
2021/12/24 02:56:37;;;;;;;21.62;11.22;;;;;;;-7.51;59.66;98891.23;1803955;79;21890;-37
2021/12/24 02:59:06;;;;;;;18.05;10.93;;;;;;;-7.51;59.66;98891.23;1804024;79;21013;-36
2021/12/24 03:01:36;;;;;;;21.33;12.53;;;;;;;-7.52;59.79;98897.53;1804644;79;21135;-37
2021/12/24 03:04:04;;;;;;;20.05;11.85;;;;;;;-7.50;59.82;98894.11;1802961;79;21029;-37
2021/12/24 03:06:35;;;;;;;23.85;12.60;;;;;;;-7.45;59.79;98889.95;1804328;79;21032;-37
2021/12/24 03:09:05;;;;;;;19.57;11.43;;;;;;;-7.40;59.55;98880.73;1803479;79;20972;-36
2021/12/24 03:11:33;;;;;;;24.65;12.75;;;;;;;-7.38;59.49;98879.97;1804170;79;21004;-37
2021/12/24 03:14:00;;;;;;;22.00;12.03;;;;;;;-7.34;59.41;98871.83;1804181;79;21838;-37
2021/12/24 03:16:28;;;;;;;20.20;12.23;;;;;;;-7.36;59.18;98869.47;1803926;79;20941;-37
2021/12/24 03:18:54;;;;;;;19.80;11.83;;;;;;;-7.36;58.99;98859.45;1779491;79;21519;-37
2021/12/24 03:21:38;;;;;;;23.07;12.23;;;;;;;-7.40;59.14;98853.88;1803993;79;20985;-37
2021/12/24 03:26:31;;;;;;;21.35;11.25;;;;;;;-7.40;59.01;98848.62;1804199;79;21106;-37
2021/12/24 03:28:58;;;;;;;21.17;12.35;;;;;;;-7.43;59.23;98843.88;1803683;79;21583;-36
2021/12/24 03:31:24;;;;;;;22.30;11.90;;;;;;;-7.41;59.04;98842.31;1804180;78;21004;-37
2021/12/24 03:33:53;;;;;;;21.52;11.38;;;;;;;-7.38;58.98;98840.48;1779290;79;21033;-37
2021/12/24 03:36:23;;;;;;;20.70;12.23;;;;;;;-7.37;58.80;98842.06;1804309;79;20976;-36
2021/12/24 03:38:51;;;;;;;19.55;11.68;;;;;;;-7.30;58.66;98832.08;1804141;79;21046;-37
2021/12/24 03:41:18;;;;;;;19.10;11.33;;;;;;;-7.30;58.66;98832.08;1803968;79;20984;-36
2021/12/24 03:43:45;;;;;;;20.80;12.07;;;;;;;-7.31;58.43;98818.13;1806757;79;21534;-37
2021/12/24 03:46:16;;;;;;;20.27;11.83;;;;;;;-7.31;58.63;98809.45;1813102;79;21004;-37
2021/12/24 03:48:53;;;;;;;26.77;10.65;;;;;;;-7.29;58.36;98806.02;1813193;79;21017;-37
2021/12/24 03:56:33;;;;;;;18.75;10.95;;;;;;;-7.35;58.53;98793.88;1813441;79;21004;-37
2021/12/24 03:59:00;;;;;;;22.35;11.83;;;;;;;-7.29;58.27;98780.48;1813159;79;21008;-36
2021/12/24 04:01:45;;;;;;;18.85;11.33;;;;;;;-7.29;58.27;98780.48;1813307;79;21059;-37
2021/12/24 04:04:25;;;;;;;19.12;11.18;;;;;;;-7.36;58.52;98756.77;1807820;79;22006;-37
2021/12/24 04:07:10;;;;;;;20.70;11.60;;;;;;;-7.36;58.52;98756.77;1813279;79;20961;-37
2021/12/24 04:10:03;;;;;;;17.37;11.03;;;;;;;-7.36;58.58;98756.77;1813069;79;22177;-37
2021/12/24 04:12:46;;;;;;;20.08;10.70;;;;;;;-7.32;58.58;98747.30;1813254;79;21017;-37
2021/12/24 04:15:12;;;;;;;18.70;10.68;;;;;;;-7.32;58.48;98743.36;1813179;79;20922;-37
2021/12/24 04:17:44;;;;;;;13.83;9.10;;;;;;;-7.36;58.56;98748.88;1813450;79;21547;-37
2021/12/24 04:25:42;;;;;;;21.48;10.13;;;;;;;-7.39;58.89;98744.90;1813350;78;21072;-37
2021/12/24 04:28:09;;;;;;;17.52;10.70;;;;;;;-7.39;58.89;98744.90;1813126;79;21073;-37
2021/12/24 04:30:43;;;;;;;16.70;9.78;;;;;;;-7.39;58.86;98738.31;1813359;79;21142;-37
2021/12/24 04:33:17;;;;;;;13.30;8.15;;;;;;;-7.38;58.95;98728.06;1812322;79;20957;-37
2021/12/24 04:35:42;;;;;;;17.02;10.40;;;;;;;-7.36;58.90;98712.02;1811552;79;20996;-37
2021/12/24 04:51:56;;;;;;;20.52;10.43;;;;;;;-7.24;58.97;98679.64;1804061;79;21018;-37
2021/12/24 05:02:50;;;;;;;19.35;10.70;;;;;;;-7.10;59.15;98687.30;1704290;84;21066;-37
2021/12/24 05:05:21;;;;;;;16.93;10.63;;;;;;;-7.16;59.58;98668.59;1666270;84;21093;-37
2021/12/24 05:10:12;;;;;;;18.55;10.30;;;;;;;-7.16;59.32;98669.38;1772863;79;21847;-38
2021/12/24 05:12:41;;;;;;;19.20;10.90;;;;;;;-7.15;59.40;98672.28;1804122;79;20961;-37
2021/12/24 05:15:11;;;;;;;17.25;10.30;;;;;;;-7.12;59.37;98664.41;1803984;79;21558;-38
2021/12/24 05:23:15;;;;;;;17.25;9.83;;;;;;;-7.20;59.83;98650.41;1803595;79;21831;-37
2021/12/24 05:25:45;;;;;;;16.35;10.60;;;;;;;-7.21;59.91;98648.86;1804080;79;21001;-37
2021/12/24 05:28:13;;;;;;;17.30;10.60;;;;;;;-7.16;59.78;98648.83;1804185;79;21021;-37
2021/12/24 05:30:41;;;;;;;15.28;9.53;;;;;;;-7.12;59.93;98644.13;1803983;79;20929;-37
2021/12/24 05:33:12;;;;;;;18.05;9.70;;;;;;;-7.05;59.75;98651.23;1804439;79;21064;-37
2021/12/24 05:35:38;;;;;;;16.32;10.23;;;;;;;-6.96;59.76;98645.43;1804009;79;21099;-37
2021/12/24 05:38:05;;;;;;;17.55;10.05;;;;;;;-6.96;59.76;98645.43;1783484;79;21080;-37
2021/12/24 05:40:33;;;;;;;18.20;10.65;;;;;;;-6.91;59.72;98653.34;1766145;81;20955;-38
2021/12/24 05:43:00;;;;;;;16.87;9.93;;;;;;;-6.91;59.72;98653.34;1766099;81;21652;-37
2021/12/24 05:45:26;;;;;;;19.10;10.43;;;;;;;-6.87;59.88;98647.28;1779498;80;21514;-37
2021/12/24 05:48:13;;;;;;;17.55;10.40;;;;;;;-6.83;59.61;98639.13;1784951;80;21573;-37
2021/12/24 05:50:41;;;;;;;18.45;10.45;;;;;;;-6.83;59.61;98639.13;1785052;80;21091;-37
2021/12/24 05:53:15;;;;;;;17.85;10.75;;;;;;;-6.75;59.64;98639.12;1766157;80;21510;-37
2021/12/24 05:55:44;;;;;;;16.97;9.98;;;;;;;-6.74;59.65;98631.48;1784787;80;21509;-37
2021/12/24 05:58:12;;;;;;;19.35;9.85;;;;;;;-6.73;59.70;98623.29;1783352;80;21004;-37
2021/12/24 06:00:40;;;;;;;17.25;10.15;;;;;;;-6.67;59.86;98620.92;1785462;80;21372;-37
2021/12/24 06:03:07;;;;;;;16.57;10.38;;;;;;;-6.60;59.76;98618.81;1785037;80;21632;-37
2021/12/24 06:05:35;;;;;;;19.55;9.80;;;;;;;-6.51;59.66;98612.47;1785272;79;20984;-38
2021/12/24 06:08:02;;;;;;;16.27;10.32;;;;;;;-6.45;59.41;98607.98;1785171;80;21024;-37
2021/12/24 06:10:32;;;;;;;16.23;10.45;;;;;;;-6.44;59.36;98610.88;1785431;79;21338;-37
2021/12/24 06:12:59;;;;;;;17.37;9.93;;;;;;;-6.49;59.55;98610.89;1785351;80;21584;-37
2021/12/24 06:15:26;;;;;;;16.73;10.38;;;;;;;-6.51;59.79;98611.67;1785081;80;21644;-37
2021/12/24 06:17:56;;;;;;;15.72;10.38;;;;;;;-6.44;60.06;98610.36;1785221;80;20941;-37
2021/12/24 06:20:26;;;;;;;17.80;10.25;;;;;;;-6.35;59.88;98601.37;1785185;79;21551;-37
2021/12/24 06:22:53;;;;;;;20.72;10.50;;;;;;;-6.36;59.84;98590.55;1785664;80;21052;-37
2021/12/24 06:25:19;;;;;;;18.87;10.10;;;;;;;-6.35;60.02;98592.14;1785244;80;21121;-37
2021/12/24 06:27:46;;;;;;;14.65;9.38;;;;;;;-6.31;60.03;98591.86;1787838;78;21529;-37
2021/12/24 06:30:13;;;;;;;18.10;10.05;;;;;;;-6.29;59.95;98585.24;1818922;78;21013;-37
2021/12/24 06:32:40;;;;;;;19.05;10.05;;;;;;;-6.25;60.00;98575.76;1820864;78;21020;-37
2021/12/24 06:35:11;;;;;;;18.82;10.68;;;;;;;-6.24;60.24;98568.08;1791422;80;21005;-37
2021/12/24 06:37:39;;;;;;;14.87;9.80;;;;;;;-6.19;60.27;98558.04;1791313;80;21129;-37
2021/12/24 06:40:08;;;;;;;18.20;10.72;;;;;;;-6.15;60.42;98564.38;1791325;80;20976;-37
2021/12/24 06:42:37;;;;;;;16.85;9.95;;;;;;;-6.16;60.65;98564.11;1791289;80;21031;-37
2021/12/24 06:45:05;;;;;;;15.48;10.43;;;;;;;-6.20;61.01;98551.20;1783705;80;21499;-37
2021/12/24 06:47:31;;;;;;;17.02;10.28;;;;;;;-6.22;61.29;98548.04;1772226;80;21029;-37
2021/12/24 06:49:58;;;;;;;19.10;10.13;;;;;;;-6.18;61.46;98533.25;1772314;80;21076;-37
2021/12/24 06:52:24;;;;;;;17.90;10.90;;;;;;;-6.17;61.68;98523.75;1772291;81;21021;-37
2021/12/24 06:54:51;;;;;;;19.40;10.90;;;;;;;-6.15;61.87;98518.98;1772258;81;20973;-37
2021/12/24 06:57:22;;;;;;;17.27;10.25;;;;;;;-6.06;61.81;98512.63;1772101;80;21060;-37
2021/12/24 06:59:49;;;;;;;16.57;10.63;;;;;;;-5.97;61.87;98524.71;1772560;81;21016;-37
2021/12/24 07:02:15;;;;;;;16.85;10.43;;;;;;;-5.93;61.85;98508.06;1772237;81;21128;-37
2021/12/24 07:04:42;;;;;;;18.95;10.93;;;;;;;-5.90;61.93;98507.50;1772533;81;21491;-37
2021/12/24 07:07:09;;;;;;;18.82;10.98;;;;;;;-5.86;61.95;98503.25;1772262;81;20973;-37
2021/12/24 07:09:42;;;;;;;17.52;11.03;;;;;;;-5.82;61.94;98514.84;1772452;81;20977;-37
2021/12/24 07:12:07;;;;;;;20.72;11.15;;;;;;;-5.74;61.91;98512.13;1771838;80;20999;-37
2021/12/24 07:14:37;;;;;;;16.90;10.03;;;;;;;-5.66;61.94;98506.27;1749051;81;21012;-37
2021/12/24 07:17:05;;;;;;;14.83;9.83;;;;;;;-5.59;61.88;98507.28;1772315;81;21306;-37
2021/12/24 07:19:31;;;;;;;16.10;9.75;;;;;;;-5.49;61.89;98497.97;1772431;81;21008;-37
2021/12/24 07:21:58;;;;;;;18.23;10.38;;;;;;;-5.43;61.83;98494.23;1772502;80;21484;-38
2021/12/24 07:24:25;;;;;;;16.20;9.80;;;;;;;-5.37;61.96;98493.11;1772286;81;21622;-37
2021/12/24 07:26:51;;;;;;;16.00;9.98;;;;;;;-5.33;61.89;98486.23;1800057;79;21124;-37
2021/12/24 07:29:18;;;;;;;16.35;9.93;;;;;;;-5.27;61.97;98477.97;1804066;79;21023;-37
2021/12/24 07:31:44;;;;;;;18.77;10.00;;;;;;;-5.25;61.87;98472.41;1790264;79;20969;-37
2021/12/24 07:34:11;;;;;;;16.75;10.05;;;;;;;-5.20;61.95;98463.13;1792815;79;21617;-37
2021/12/24 07:36:38;;;;;;;15.05;9.45;;;;;;;-5.22;62.06;98444.64;1804247;79;21802;-37
2021/12/24 07:39:04;;;;;;;14.28;9.15;;;;;;;-5.24;62.21;98439.66;1804066;79;21129;-37
2021/12/24 07:41:31;;;;;;;14.35;9.80;;;;;;;-5.22;62.45;98436.19;1792518;79;21008;-37
2021/12/24 07:43:58;;;;;;;16.17;9.90;;;;;;;-5.20;62.42;98426.66;1766191;81;20980;-37
2021/12/24 07:46:31;;;;;;;16.55;9.90;;;;;;;-5.17;62.48;98426.09;1799829;79;21534;-37
2021/12/24 07:49:01;;;;;;;18.48;9.88;;;;;;;-5.13;62.60;98414.69;1803256;79;20978;-37
2021/12/24 07:54:06;;;;;;;15.58;10.10;;;;;;;-4.98;62.37;98419.02;1804153;79;21037;-37
2021/12/24 07:56:32;;;;;;;19.35;9.78;;;;;;;-4.93;62.28;98414.47;1804397;79;21025;-37
2021/12/24 07:59:01;;;;;;;16.97;10.15;;;;;;;-4.85;62.25;98408.59;1804166;79;21016;-37
2021/12/24 08:01:28;;;;;;;15.75;10.60;;;;;;;-4.80;62.17;98413.56;1804070;79;21075;-38
2021/12/24 08:03:55;;;;;;;19.80;10.65;;;;;;;-4.74;62.05;98407.15;1777738;79;21136;-37
2021/12/24 08:06:24;;;;;;;15.13;10.28;;;;;;;-4.71;62.10;98392.03;1772559;81;21001;-37
2021/12/24 08:08:50;;;;;;;13.32;8.85;;;;;;;-4.65;62.13;98396.19;1772393;81;21041;-37
2021/12/24 08:11:19;;;;;;;17.55;10.72;;;;;;;-4.59;61.94;98390.53;1772207;81;21007;-37
2021/12/24 08:13:45;;;;;;;17.45;10.03;;;;;;;-4.60;61.97;98386.88;1772439;81;21025;-37
2021/12/24 08:16:13;;;;;;;16.40;9.85;;;;;;;-4.64;61.88;98369.98;1772514;81;21129;-37
2021/12/24 08:18:43;;;;;;;16.82;9.65;;;;;;;-4.58;61.91;98387.36;1772373;80;20957;-37
2021/12/24 08:21:10;;;;;;;16.17;10.48;;;;;;;-4.58;61.96;98379.42;1772678;80;21068;-37
2021/12/24 08:23:37;;;;;;;14.47;9.10;;;;;;;-4.61;62.16;98381.33;1772393;81;21016;-37
2021/12/24 08:26:04;;;;;;;15.90;9.15;;;;;;;-4.66;62.34;98364.20;1772379;80;21555;-37
2021/12/24 08:28:30;;;;;;;15.38;9.75;;;;;;;-4.63;62.42;98364.41;1792544;79;21956;-38
2021/12/24 08:30:57;;;;;;;15.28;9.78;;;;;;;-4.67;62.35;98340.94;1801253;79;21009;-38
2021/12/24 08:33:23;;;;;;;16.75;10.85;;;;;;;-4.63;62.46;98355.16;1800997;79;21535;-37
2021/12/24 08:35:50;;;;;;;17.62;9.78;;;;;;;-4.64;62.59;98344.32;1801293;79;21026;-38
2021/12/24 08:38:19;;;;;;;17.42;10.88;;;;;;;-4.64;62.64;98337.71;1800924;79;20970;-38
2021/12/24 08:40:45;;;;;;;13.22;9.68;;;;;;;-4.55;62.72;98339.96;1801143;79;21951;-37
2021/12/24 08:43:11;;;;;;;18.12;9.93;;;;;;;-4.50;62.39;98314.77;1800815;79;21496;-37
2021/12/24 08:45:38;;;;;;;16.50;9.93;;;;;;;-4.43;62.16;98323.67;1801060;79;21056;-37
2021/12/24 08:48:05;;;;;;;13.72;9.28;;;;;;;-4.43;62.12;98309.91;1733000;82;21093;-38
2021/12/24 08:50:31;;;;;;;19.20;10.25;;;;;;;-4.42;62.28;98300.13;1758280;81;21270;-38
2021/12/24 08:52:58;;;;;;;17.25;10.15;;;;;;;-4.32;62.25;98291.25;1728123;82;21139;-38
2021/12/24 08:55:25;;;;;;;15.18;9.88;;;;;;;-4.19;62.02;98286.00;1758075;81;21045;-38
2021/12/24 08:57:51;;;;;;;15.32;9.78;;;;;;;-4.12;61.63;98278.48;1733063;82;21025;-38
2021/12/24 09:00:21;;;;;;;16.15;10.88;;;;;;;-4.08;61.17;98262.27;1758089;81;21487;-38
2021/12/24 09:02:47;;;;;;;15.53;9.33;;;;;;;-4.07;61.32;98254.58;1733181;82;21074;-37
2021/12/24 09:05:15;;;;;;;15.25;9.30;;;;;;;-3.99;61.36;98264.49;1757981;81;21602;-38
2021/12/24 09:07:42;;;;;;;17.10;9.53;;;;;;;-3.95;61.58;98240.86;1732799;82;21014;-38
2021/12/24 09:10:10;;;;;;;13.98;9.13;;;;;;;-3.90;61.54;98251.36;1757940;81;21314;-37
2021/12/24 09:12:37;;;;;;;12.85;9.13;;;;;;;-3.88;61.38;98239.95;1801161;79;21526;-38
2021/12/24 09:15:04;;;;;;;14.35;9.33;;;;;;;-3.86;61.36;98233.81;1801351;79;21583;-38
2021/12/24 09:17:32;;;;;;;12.25;7.50;;;;;;;-3.78;61.25;98229.72;1801275;79;21179;-38
2021/12/24 09:19:59;;;;;;;16.30;8.88;;;;;;;-3.71;61.04;98229.56;1801187;79;21020;-37
2021/12/24 09:22:32;;;;;;;13.22;8.93;;;;;;;-3.63;60.79;98214.86;1800990;79;21063;-37
2021/12/24 09:24:57;;;;;;;14.18;9.03;;;;;;;-3.50;60.35;98207.45;1800835;79;21775;-38
2021/12/24 09:27:24;;;;;;;15.98;9.90;;;;;;;-3.41;60.04;98195.06;1798004;79;21042;-38
2021/12/24 09:29:51;;;;;;;13.75;9.68;;;;;;;-3.31;60.30;98203.34;1789461;80;21034;-37
2021/12/24 09:32:18;;;;;;;17.65;9.83;;;;;;;-3.23;59.38;98205.28;1721548;83;20970;-37
2021/12/24 09:34:44;;;;;;;13.68;9.85;;;;;;;-3.26;59.34;98200.05;1741101;82;21044;-37
2021/12/24 09:37:11;;;;;;;12.55;8.38;;;;;;;-3.29;59.43;98186.63;1740751;82;21006;-38
2021/12/24 09:39:38;;;;;;;13.32;9.03;;;;;;;-3.29;59.28;98179.43;1741332;82;21041;-38
2021/12/24 09:42:06;;;;;;;14.47;9.45;;;;;;;-3.32;59.62;98180.03;1740986;82;21085;-38
2021/12/24 09:44:32;;;;;;;13.28;9.18;;;;;;;-3.36;59.53;98173.77;1741205;82;20946;-37
2021/12/24 09:46:58;;;;;;;12.30;9.05;;;;;;;-3.37;59.81;98171.41;1747919;82;21492;-38
2021/12/24 09:49:25;;;;;;;14.07;8.95;;;;;;;-3.47;59.91;98164.45;1750071;82;21049;-37
2021/12/24 09:51:53;;;;;;;13.83;9.00;;;;;;;-3.53;60.02;98157.15;1749952;82;21033;-38
2021/12/24 09:54:22;;;;;;;13.53;8.83;;;;;;;-3.63;60.33;98148.08;1750115;82;21225;-37
2021/12/24 09:56:51;;;;;;;9.95;6.83;;;;;;;-3.70;60.81;98140.30;1749972;82;20974;-38
2021/12/24 09:59:17;;;;;;;13.80;9.13;;;;;;;-3.68;60.91;98143.45;1750017;82;21092;-38
2021/12/24 10:01:54;;;;;;;14.60;9.30;;;;;;;-3.71;61.09;98128.14;1749954;82;21029;-38
2021/12/24 10:04:24;;;;;;;13.38;8.93;;;;;;;-3.69;61.30;98128.10;1744738;82;21017;-38
2021/12/24 10:07:03;;;;;;;14.68;9.20;;;;;;;-3.71;61.35;98128.92;1750058;82;21047;-38
2021/12/24 10:09:39;;;;;;;12.00;9.23;;;;;;;-3.72;61.52;98123.38;1750080;82;21539;-38
2021/12/24 10:12:16;;;;;;;13.00;9.18;;;;;;;-3.71;61.73;98116.22;1749934;82;21562;-38
2021/12/24 10:14:53;;;;;;;14.43;9.58;;;;;;;-3.65;61.81;98119.02;1749909;82;20953;-38
2021/12/24 10:17:24;;;;;;;15.70;9.95;;;;;;;-3.64;61.75;98113.97;1749741;82;21032;-37
2021/12/24 10:19:54;;;;;;;15.45;9.85;;;;;;;-3.66;61.80;98104.98;1721956;83;21004;-37
2021/12/24 10:22:21;;;;;;;;;;;;;;;-3.65;61.83;98099.16;1738266;82;20946;-38
2021/12/24 10:25:09;;;;;;;15.58;10.13;;;;;;;-3.66;61.95;98090.42;1735900;82;20135;-37
2021/12/24 10:27:38;;;;;;;17.25;10.20;;;;;;;-3.78;62.40;98082.22;1726128;81;20959;-37
2021/12/24 10:30:26;;;;;;;13.85;9.40;;;;;;;-3.76;62.51;98077.93;1787615;80;21476;-37
2021/12/24 10:32:55;;;;;;;14.68;10.28;;;;;;;-3.78;62.45;98075.59;1787899;80;21777;-37
2021/12/24 10:35:26;;;;;;;11.10;7.58;;;;;;;-3.76;62.65;98058.86;1787780;80;21531;-37
2021/12/24 10:38:17;;;;;;;14.28;9.90;;;;;;;-3.74;62.77;98052.73;1787659;80;20972;-38
2021/12/24 10:40:53;;;;;;;14.45;10.38;;;;;;;-3.65;62.70;98046.19;1787289;79;21771;-38
2021/12/24 10:43:33;;;;;;;15.03;9.15;;;;;;;-3.62;62.52;98037.63;1770427;79;21492;-38
2021/12/24 10:46:19;;;;;;;14.68;10.15;;;;;;;-3.56;62.54;98033.80;1790396;79;21126;-38
2021/12/24 10:49:04;;;;;;;14.93;10.68;;;;;;;-3.50;62.55;98025.98;1748038;82;21069;-38
2021/12/24 10:54:18;;;;;;;16.45;10.13;;;;;;;-3.33;62.38;98012.06;1809487;79;21005;-41
2021/12/24 10:56:46;;;;;;;15.48;10.20;;;;;;;-3.28;61.86;98015.38;1815394;79;21001;-38
2021/12/24 11:02:11;;;;;;;14.40;10.18;;;;;;;-3.17;62.04;98012.73;1835837;78;23193;-37
2021/12/24 11:04:38;;;;;;;16.27;10.98;;;;;;;-3.20;62.16;98001.42;1805685;79;21014;-37
2021/12/24 11:07:33;;;;;;;16.90;9.75;;;;;;;-3.15;61.93;97986.69;1805671;79;21775;-37
2021/12/24 11:10:14;;;;;;;18.05;11.08;;;;;;;-3.09;61.87;97983.37;1805615;79;21013;-37
2021/12/24 11:12:46;;;;;;;18.57;10.15;;;;;;;-3.11;61.56;97985.02;1796395;79;20933;-37
2021/12/24 11:15:24;;;;;;;17.90;11.83;;;;;;;-3.15;61.89;97995.96;1805677;79;20938;-37
2021/12/24 11:17:53;;;;;;;15.53;10.53;;;;;;;-3.14;62.01;97994.88;1805693;79;21017;-37
2021/12/24 11:20:20;;;;;;;13.00;8.47;;;;;;;-3.16;62.25;97986.47;1805702;79;21524;-37
2021/12/24 11:23:09;;;;;;;16.00;10.00;;;;;;;-3.15;62.15;97983.28;1805677;79;21463;-37
2021/12/24 11:25:43;;;;;;;16.52;11.40;;;;;;;-3.14;62.09;97969.70;1805603;79;21481;-37
2021/12/24 11:28:11;;;;;;;15.55;10.65;;;;;;;-3.17;62.16;97962.38;1775449;79;21559;-37
2021/12/24 11:30:44;;;;;;;18.00;11.25;;;;;;;-3.14;62.40;97960.42;1752875;81;21043;-37
2021/12/24 11:33:16;;;;;;;18.05;11.15;;;;;;;-3.09;62.42;97960.30;1752659;81;21107;-37
2021/12/24 11:35:44;;;;;;;15.45;11.03;;;;;;;-3.00;62.18;97960.91;1752674;81;21496;-37
2021/12/24 11:38:18;;;;;;;15.95;11.40;;;;;;;-2.95;62.24;97962.09;1752671;80;20964;-38
2021/12/24 11:40:46;;;;;;;14.70;10.38;;;;;;;-2.89;62.26;97948.92;1752889;81;21076;-37
2021/12/24 11:43:13;;;;;;;14.85;10.60;;;;;;;-2.87;62.23;97940.13;1752612;81;21005;-37
2021/12/24 11:45:40;;;;;;;17.77;10.50;;;;;;;-2.85;62.05;97939.27;1783090;80;21086;-37
2021/12/24 11:48:07;;;;;;;16.20;11.35;;;;;;;-2.85;61.97;97955.17;1783683;80;21000;-38
2021/12/24 11:50:34;;;;;;;16.48;11.43;;;;;;;-2.91;62.06;97928.04;1783535;79;21004;-37
2021/12/24 11:53:04;;;;;;;18.65;11.93;;;;;;;-2.90;62.22;97932.77;1784045;80;21009;-37
2021/12/24 11:55:35;;;;;;;15.75;11.73;;;;;;;-2.89;62.46;97928.50;1783961;80;21020;-37
2021/12/24 11:58:06;;;;;;;16.20;11.35;;;;;;;-2.84;62.36;97935.53;1784114;80;21677;-37
2021/12/24 12:00:39;;;;;;;17.57;11.73;;;;;;;-2.88;62.27;97922.11;1785097;79;20990;-37
2021/12/24 12:03:10;;;;;;;16.05;11.40;;;;;;;-2.84;62.34;97907.69;1789472;79;21036;-37
2021/12/24 12:05:39;;;;;;;9.95;7.72;;;;;;;-2.91;62.20;97927.25;1789798;80;21012;-37
2021/12/24 12:08:37;;;;;;;19.23;12.37;;;;;;;-2.89;62.35;97917.11;1789404;80;21566;-37
2021/12/24 12:11:24;;;;;;;17.48;11.40;;;;;;;-2.90;62.47;97913.67;1789612;79;21617;-37
2021/12/24 12:14:08;;;;;;;16.05;11.73;;;;;;;-2.94;62.46;97919.89;1788690;79;21530;-37
2021/12/24 12:16:45;;;;;;;16.40;10.98;;;;;;;-2.96;62.56;97904.31;1788124;79;20925;-37
2021/12/24 12:19:47;;;;;;;15.50;10.95;;;;;;;-2.95;62.73;97904.52;1788932;79;21017;-37
2021/12/24 12:25:10;;;;;;;16.12;11.70;;;;;;;-2.97;62.76;97902.73;1789060;80;21848;-37
2021/12/24 12:27:48;;;;;;;19.92;12.65;;;;;;;-2.97;62.90;97909.91;1788892;79;20994;-37
2021/12/24 12:30:39;;;;;;;15.70;11.68;;;;;;;-2.97;63.00;97915.21;1788379;79;21016;-37
2021/12/24 12:33:14;;;;;;;14.83;10.50;;;;;;;-2.93;63.21;97908.20;1789068;80;21017;-37
2021/12/24 12:35:54;;;;;;;17.55;12.18;;;;;;;-2.85;62.99;97908.77;1789054;79;21103;-37
2021/12/24 12:38:43;;;;;;;15.58;11.43;;;;;;;-2.86;63.03;97895.30;1788846;79;21113;-37
2021/12/24 12:41:33;;;;;;;16.77;11.12;;;;;;;-2.87;63.08;97888.42;1789166;80;21031;-37
2021/12/24 12:44:03;;;;;;;13.30;9.68;;;;;;;-2.86;63.13;97874.08;1789217;79;20992;-37
2021/12/24 12:46:40;;;;;;;14.63;10.95;;;;;;;-2.87;63.11;97867.20;1788343;79;21009;-37
2021/12/24 12:49:09;;;;;;;16.73;11.55;;;;;;;-2.88;63.19;97872.27;1788953;79;20996;-37
2021/12/24 12:52:12;;;;;;;12.97;9.33;;;;;;;-2.85;63.27;97861.03;1789315;80;21796;-37
2021/12/24 12:54:43;;;;;;;16.70;12.23;;;;;;;-2.79;63.28;97855.83;1788635;79;21527;-37
2021/12/24 12:57:32;;;;;;;18.50;11.50;;;;;;;-2.77;63.17;97846.50;1788826;80;20945;-37
2021/12/24 13:00:19;;;;;;;18.73;12.35;;;;;;;-2.79;63.26;97839.92;1789261;80;21020;-37
2021/12/24 13:05:46;;;;;;;18.37;12.20;;;;;;;-2.78;63.39;97822.92;1788853;80;21577;-37
2021/12/24 13:08:15;;;;;;;17.67;11.97;;;;;;;-2.85;63.58;97813.30;1788851;80;20992;-37
2021/12/24 13:11:02;;;;;;;18.23;11.90;;;;;;;-2.82;63.74;97803.42;1789054;79;20972;-37